sensor_id;sensor_type;location;lat;lon;timestamp;pressure;altitude;pressure_sealevel;temperature;humidity
61039;BME280;46919;45.816;3.104;2023-05-03T00:02:04;98340.72;;;10.99;73.55
61039;BME280;46919;45.816;3.104;2023-05-03T00:04:30;98335.34;;;10.93;74.13
61039;BME280;46919;45.816;3.104;2023-05-03T00:06:58;98343.28;;;10.87;74.06
61039;BME280;46919;45.816;3.104;2023-05-03T00:09:24;98331.63;;;10.87;74.10
61039;BME280;46919;45.816;3.104;2023-05-03T00:11:50;98323.34;;;10.82;73.85
61039;BME280;46919;45.816;3.104;2023-05-03T00:14:15;98320.44;;;10.77;74.46
61039;BME280;46919;45.816;3.104;2023-05-03T00:16:40;98317.56;;;10.72;74.81
61039;BME280;46919;45.816;3.104;2023-05-03T00:19:06;98318.16;;;10.74;74.82
61039;BME280;46919;45.816;3.104;2023-05-03T00:21:31;98317.13;;;10.75;74.87
61039;BME280;46919;45.816;3.104;2023-05-03T00:23:57;98316.78;;;10.64;75.27
61039;BME280;46919;45.816;3.104;2023-05-03T00:26:23;98318.25;;;10.60;74.90
61039;BME280;46919;45.816;3.104;2023-05-03T00:28:48;98310.16;;;10.54;75.10
61039;BME280;46919;45.816;3.104;2023-05-03T00:31:13;98300.81;;;10.49;75.56
61039;BME280;46919;45.816;3.104;2023-05-03T00:33:39;98302.28;;;10.52;75.36
61039;BME280;46919;45.816;3.104;2023-05-03T00:38:34;98296.88;;;10.52;75.76
61039;BME280;46919;45.816;3.104;2023-05-03T00:40:59;98301.44;;;10.51;75.61
61039;BME280;46919;45.816;3.104;2023-05-03T00:43:26;98294.41;;;10.44;76.05
61039;BME280;46919;45.816;3.104;2023-05-03T00:45:51;98292.78;;;10.36;76.89
61039;BME280;46919;45.816;3.104;2023-05-03T00:48:17;98287.97;;;10.31;76.80
61039;BME280;46919;45.816;3.104;2023-05-03T00:50:43;98279.06;;;10.31;76.87
61039;BME280;46919;45.816;3.104;2023-05-03T00:53:10;98283.00;;;10.28;76.66
61039;BME280;46919;45.816;3.104;2023-05-03T00:55:36;98279.69;;;10.26;77.35
61039;BME280;46919;45.816;3.104;2023-05-03T00:58:01;98272.41;;;10.27;77.44
61039;BME280;46919;45.816;3.104;2023-05-03T01:00:27;98274.50;;;10.25;77.89
61039;BME280;46919;45.816;3.104;2023-05-03T01:02:52;98270.09;;;10.30;77.92
61039;BME280;46919;45.816;3.104;2023-05-03T01:05:20;98272.84;;;10.24;77.95
61039;BME280;46919;45.816;3.104;2023-05-03T01:08:08;98263.31;;;10.08;78.85
61039;BME280;46919;45.816;3.104;2023-05-03T01:10:41;98263.34;;;10.01;78.49
61039;BME280;46919;45.816;3.104;2023-05-03T01:16:18;98250.47;;;9.96;78.38
61039;BME280;46919;45.816;3.104;2023-05-03T01:18:46;98248.03;;;9.88;78.79
61039;BME280;46919;45.816;3.104;2023-05-03T01:21:16;98251.31;;;9.90;78.74
61039;BME280;46919;45.816;3.104;2023-05-03T01:23:53;98251.53;;;9.89;79.17
61039;BME280;46919;45.816;3.104;2023-05-03T01:26:21;98243.47;;;9.82;79.87
61039;BME280;46919;45.816;3.104;2023-05-03T01:28:47;98240.97;;;9.81;80.23
61039;BME280;46919;45.816;3.104;2023-05-03T01:31:46;98240.16;;;9.73;80.31
61039;BME280;46919;45.816;3.104;2023-05-03T01:34:33;98235.59;;;9.60;80.64
61039;BME280;46919;45.816;3.104;2023-05-03T01:37:03;98238.72;;;9.51;80.83
61039;BME280;46919;45.816;3.104;2023-05-03T01:39:41;98229.19;;;9.55;81.20
61039;BME280;46919;45.816;3.104;2023-05-03T01:42:08;98234.38;;;9.50;80.99
61039;BME280;46919;45.816;3.104;2023-05-03T01:44:35;98239.78;;;9.43;81.16
61039;BME280;46919;45.816;3.104;2023-05-03T01:47:00;98239.38;;;9.39;81.66
61039;BME280;46919;45.816;3.104;2023-05-03T01:49:26;98242.28;;;9.38;81.62
61039;BME280;46919;45.816;3.104;2023-05-03T01:51:52;98239.97;;;9.41;82.02
61039;BME280;46919;45.816;3.104;2023-05-03T01:54:17;98234.56;;;9.48;81.73
61039;BME280;46919;45.816;3.104;2023-05-03T01:56:42;98239.16;;;9.48;81.35
61039;BME280;46919;45.816;3.104;2023-05-03T01:59:08;98231.28;;;9.39;81.87
61039;BME280;46919;45.816;3.104;2023-05-03T02:01:34;98232.09;;;9.33;82.16
61039;BME280;46919;45.816;3.104;2023-05-03T02:03:59;98232.53;;;9.30;81.98
61039;BME280;46919;45.816;3.104;2023-05-03T02:06:24;98220.69;;;9.24;82.54
61039;BME280;46919;45.816;3.104;2023-05-03T02:08:51;98219.88;;;9.24;82.79
61039;BME280;46919;45.816;3.104;2023-05-03T02:11:16;98216.56;;;9.15;82.63
61039;BME280;46919;45.816;3.104;2023-05-03T02:13:42;98223.41;;;9.11;83.10
61039;BME280;46919;45.816;3.104;2023-05-03T02:16:07;98210.75;;;9.05;83.16
61039;BME280;46919;45.816;3.104;2023-05-03T02:18:34;98216.97;;;8.99;83.93
61039;BME280;46919;45.816;3.104;2023-05-03T02:20:59;98224.44;;;8.90;83.88
61039;BME280;46919;45.816;3.104;2023-05-03T02:23:25;98202.88;;;8.83;84.22
61039;BME280;46919;45.816;3.104;2023-05-03T02:25:50;98216.53;;;8.82;84.23
61039;BME280;46919;45.816;3.104;2023-05-03T02:28:16;98211.53;;;8.72;84.46
61039;BME280;46919;45.816;3.104;2023-05-03T02:30:41;98219.00;;;8.63;85.11
61039;BME280;46919;45.816;3.104;2023-05-03T02:33:07;98197.41;;;8.50;85.77
61039;BME280;46919;45.816;3.104;2023-05-03T02:35:32;98205.63;;;8.42;86.47
61039;BME280;46919;45.816;3.104;2023-05-03T02:37:58;98195.25;;;8.25;86.97
61039;BME280;46919;45.816;3.104;2023-05-03T02:40:23;98201.22;;;8.14;87.72
61039;BME280;46919;45.816;3.104;2023-05-03T02:42:49;98200.16;;;8.08;87.90
61039;BME280;46919;45.816;3.104;2023-05-03T02:45:15;98197.22;;;8.03;88.14
61039;BME280;46919;45.816;3.104;2023-05-03T02:47:40;98206.78;;;8.06;88.76
61039;BME280;46919;45.816;3.104;2023-05-03T02:50:05;98195.59;;;8.09;88.46
61039;BME280;46919;45.816;3.104;2023-05-03T02:52:32;98186.00;;;7.93;89.28
61039;BME280;46919;45.816;3.104;2023-05-03T02:54:57;98188.25;;;7.83;89.80
61039;BME280;46919;45.816;3.104;2023-05-03T02:57:22;98186.53;;;7.75;90.03
61039;BME280;46919;45.816;3.104;2023-05-03T02:59:48;98182.16;;;7.67;90.56
61039;BME280;46919;45.816;3.104;2023-05-03T03:02:13;98172.84;;;7.63;90.50
61039;BME280;46919;45.816;3.104;2023-05-03T03:04:39;98174.28;;;7.66;90.61
61039;BME280;46919;45.816;3.104;2023-05-03T03:07:04;98169.81;;;7.79;89.79
61039;BME280;46919;45.816;3.104;2023-05-03T03:09:30;98170.16;;;7.70;90.34
61039;BME280;46919;45.816;3.104;2023-05-03T03:11:55;98158.53;;;7.62;90.63
61039;BME280;46919;45.816;3.104;2023-05-03T03:14:21;98160.97;;;7.51;90.93
61039;BME280;46919;45.816;3.104;2023-05-03T03:16:46;98157.16;;;7.38;91.79
61039;BME280;46919;45.816;3.104;2023-05-03T03:19:11;98158.56;;;7.34;91.87
61039;BME280;46919;45.816;3.104;2023-05-03T03:21:37;98155.28;;;7.32;92.30
61039;BME280;46919;45.816;3.104;2023-05-03T03:24:03;98158.84;;;7.39;92.19
61039;BME280;46919;45.816;3.104;2023-05-03T03:26:28;98158.44;;;7.42;91.80
61039;BME280;46919;45.816;3.104;2023-05-03T03:28:54;98152.19;;;7.35;91.71
61039;BME280;46919;45.816;3.104;2023-05-03T03:31:19;98157.00;;;7.47;91.60
61039;BME280;46919;45.816;3.104;2023-05-03T03:33:47;98145.78;;;7.36;91.62
61039;BME280;46919;45.816;3.104;2023-05-03T03:36:13;98149.03;;;7.25;92.29
61039;BME280;46919;45.816;3.104;2023-05-03T03:38:38;98154.22;;;7.27;92.63
61039;BME280;46919;45.816;3.104;2023-05-03T03:41:05;98138.34;;;7.38;92.06
61039;BME280;46919;45.816;3.104;2023-05-03T03:43:31;98150.06;;;7.24;92.01
61039;BME280;46919;45.816;3.104;2023-05-03T03:45:56;98147.03;;;7.05;92.98
61039;BME280;46919;45.816;3.104;2023-05-03T03:48:22;98150.44;;;6.93;93.51
61039;BME280;46919;45.816;3.104;2023-05-03T03:50:48;98143.47;;;6.98;93.72
61039;BME280;46919;45.816;3.104;2023-05-03T03:53:14;98148.81;;;6.92;93.81
61039;BME280;46919;45.816;3.104;2023-05-03T03:55:39;98149.31;;;6.80;94.35
61039;BME280;46919;45.816;3.104;2023-05-03T03:58:04;98145.56;;;6.75;94.47
61039;BME280;46919;45.816;3.104;2023-05-03T04:00:30;98154.19;;;6.70;94.78
61039;BME280;46919;45.816;3.104;2023-05-03T04:02:55;98156.78;;;6.85;94.68
61039;BME280;46919;45.816;3.104;2023-05-03T04:05:22;98158.31;;;6.94;93.66
61039;BME280;46919;45.816;3.104;2023-05-03T04:07:48;98154.22;;;6.98;93.55
61039;BME280;46919;45.816;3.104;2023-05-03T04:10:13;98151.78;;;6.82;94.01
61039;BME280;46919;45.816;3.104;2023-05-03T04:12:39;98165.22;;;6.82;94.57
61039;BME280;46919;45.816;3.104;2023-05-03T04:15:05;98168.81;;;6.89;94.49
61039;BME280;46919;45.816;3.104;2023-05-03T04:17:30;98178.78;;;6.95;94.25
61039;BME280;46919;45.816;3.104;2023-05-03T04:19:57;98180.31;;;7.04;93.56
61039;BME280;46919;45.816;3.104;2023-05-03T04:22:22;98175.38;;;7.08;93.11
61039;BME280;46919;45.816;3.104;2023-05-03T04:24:48;98176.69;;;6.91;93.68
61039;BME280;46919;45.816;3.104;2023-05-03T04:27:13;98188.34;;;6.76;94.49
61039;BME280;46919;45.816;3.104;2023-05-03T04:29:39;98183.31;;;6.66;95.35
61039;BME280;46919;45.816;3.104;2023-05-03T04:32:04;98185.31;;;6.64;95.47
61039;BME280;46919;45.816;3.104;2023-05-03T04:34:32;98191.16;;;6.68;95.72
61039;BME280;46919;45.816;3.104;2023-05-03T04:36:57;98192.88;;;6.54;96.03
61039;BME280;46919;45.816;3.104;2023-05-03T04:39:24;98203.09;;;6.44;96.59
61039;BME280;46919;45.816;3.104;2023-05-03T04:41:50;98207.00;;;6.41;97.05
61039;BME280;46919;45.816;3.104;2023-05-03T04:44:15;98200.34;;;6.37;97.07
61039;BME280;46919;45.816;3.104;2023-05-03T04:46:41;98197.47;;;6.39;97.21
61039;BME280;46919;45.816;3.104;2023-05-03T04:49:07;98204.91;;;6.58;96.23
61039;BME280;46919;45.816;3.104;2023-05-03T04:51:32;98215.56;;;6.51;96.43
61039;BME280;46919;45.816;3.104;2023-05-03T04:53:58;98218.00;;;6.46;96.67
61039;BME280;46919;45.816;3.104;2023-05-03T04:56:24;98217.94;;;6.40;97.07
61039;BME280;46919;45.816;3.104;2023-05-03T04:58:51;98214.53;;;6.31;97.65
61039;BME280;46919;45.816;3.104;2023-05-03T05:01:17;98224.06;;;6.33;97.34
61039;BME280;46919;45.816;3.104;2023-05-03T05:03:43;98220.38;;;6.34;97.55
61039;BME280;46919;45.816;3.104;2023-05-03T05:06:08;98220.00;;;6.38;97.62
61039;BME280;46919;45.816;3.104;2023-05-03T05:08:36;98226.63;;;6.42;97.50
61039;BME280;46919;45.816;3.104;2023-05-03T05:11:02;98223.19;;;6.48;97.35
61039;BME280;46919;45.816;3.104;2023-05-03T05:13:30;98227.22;;;6.59;96.42
61039;BME280;46919;45.816;3.104;2023-05-03T05:15:56;98227.03;;;6.82;95.74
61039;BME280;46919;45.816;3.104;2023-05-03T05:18:21;98230.75;;;6.81;95.28
61039;BME280;46919;45.816;3.104;2023-05-03T05:20:47;98233.03;;;6.62;96.45
61039;BME280;46919;45.816;3.104;2023-05-03T05:23:15;98232.41;;;6.60;97.13
61039;BME280;46919;45.816;3.104;2023-05-03T05:25:40;98227.66;;;6.62;97.60
61039;BME280;46919;45.816;3.104;2023-05-03T05:28:06;98228.19;;;6.73;97.37
61039;BME280;46919;45.816;3.104;2023-05-03T05:30:31;98226.63;;;6.85;97.24
61039;BME280;46919;45.816;3.104;2023-05-03T05:32:57;98229.59;;;6.90;96.97
61039;BME280;46919;45.816;3.104;2023-05-03T05:35:22;98226.28;;;7.16;96.61
61039;BME280;46919;45.816;3.104;2023-05-03T05:37:47;98220.41;;;7.34;95.60
61039;BME280;46919;45.816;3.104;2023-05-03T05:40:13;98225.38;;;7.31;95.65
61039;BME280;46919;45.816;3.104;2023-05-03T05:42:39;98225.38;;;7.31;95.87
61039;BME280;46919;45.816;3.104;2023-05-03T05:45:05;98233.88;;;7.34;96.04
61039;BME280;46919;45.816;3.104;2023-05-03T05:47:32;98229.19;;;7.43;96.11
61039;BME280;46919;45.816;3.104;2023-05-03T05:49:57;98215.97;;;7.48;96.12
61039;BME280;46919;45.816;3.104;2023-05-03T05:52:22;98215.63;;;7.58;96.00
61039;BME280;46919;45.816;3.104;2023-05-03T05:54:48;98219.81;;;7.67;95.64
61039;BME280;46919;45.816;3.104;2023-05-03T05:57:13;98216.97;;;7.75;95.64
61039;BME280;46919;45.816;3.104;2023-05-03T05:59:38;98210.00;;;7.88;95.53
61039;BME280;46919;45.816;3.104;2023-05-03T06:02:13;98203.00;;;8.00;95.06
61039;BME280;46919;45.816;3.104;2023-05-03T06:04:38;98209.28;;;8.07;94.25
61039;BME280;46919;45.816;3.104;2023-05-03T06:07:04;98209.91;;;8.16;93.98
61039;BME280;46919;45.816;3.104;2023-05-03T06:09:29;98212.63;;;8.23;93.35
61039;BME280;46919;45.816;3.104;2023-05-03T06:11:55;98213.28;;;8.31;93.14
61039;BME280;46919;45.816;3.104;2023-05-03T06:14:20;98210.38;;;8.33;93.44
61039;BME280;46919;45.816;3.104;2023-05-03T06:16:45;98206.13;;;8.45;93.25
61039;BME280;46919;45.816;3.104;2023-05-03T06:19:11;98204.88;;;8.55;93.09
61039;BME280;46919;45.816;3.104;2023-05-03T06:21:37;98208.63;;;8.60;92.60
61039;BME280;46919;45.816;3.104;2023-05-03T06:24:02;98205.31;;;8.65;92.54
61039;BME280;46919;45.816;3.104;2023-05-03T06:26:27;98209.91;;;8.78;92.43
61039;BME280;46919;45.816;3.104;2023-05-03T06:28:53;98205.56;;;8.83;91.88
61039;BME280;46919;45.816;3.104;2023-05-03T06:31:18;98203.69;;;8.91;91.92
61039;BME280;46919;45.816;3.104;2023-05-03T06:33:44;98207.84;;;9.00;92.10
61039;BME280;46919;45.816;3.104;2023-05-03T06:36:09;98207.84;;;9.00;91.91
61039;BME280;46919;45.816;3.104;2023-05-03T06:38:35;98212.81;;;9.10;91.93
61039;BME280;46919;45.816;3.104;2023-05-03T06:41:00;98210.97;;;9.17;91.92
61039;BME280;46919;45.816;3.104;2023-05-03T06:43:26;98209.72;;;9.33;91.32
61039;BME280;46919;45.816;3.104;2023-05-03T06:45:51;98209.91;;;9.38;90.99
61039;BME280;46919;45.816;3.104;2023-05-03T06:48:18;98208.88;;;9.46;91.33
61039;BME280;46919;45.816;3.104;2023-05-03T06:50:43;98204.06;;;9.48;91.26
61039;BME280;46919;45.816;3.104;2023-05-03T06:53:09;98200.13;;;9.50;90.81
61039;BME280;46919;45.816;3.104;2023-05-03T06:55:34;98189.94;;;9.59;90.98
61039;BME280;46919;45.816;3.104;2023-05-03T06:57:59;98200.06;;;9.70;90.95
61039;BME280;46919;45.816;3.104;2023-05-03T07:00:25;98186.59;;;9.77;90.91
61039;BME280;46919;45.816;3.104;2023-05-03T07:02:51;98191.75;;;9.85;90.12
61039;BME280;46919;45.816;3.104;2023-05-03T07:05:16;98184.25;;;9.87;90.21
61039;BME280;46919;45.816;3.104;2023-05-03T07:07:41;98177.59;;;9.96;89.23
61039;BME280;46919;45.816;3.104;2023-05-03T07:10:07;98177.34;;;10.05;89.36
61039;BME280;46919;45.816;3.104;2023-05-03T07:12:33;98177.13;;;10.06;88.46
61039;BME280;46919;45.816;3.104;2023-05-03T07:14:58;98175.66;;;10.10;88.54
61039;BME280;46919;45.816;3.104;2023-05-03T07:17:24;98173.53;;;10.19;88.51
61039;BME280;46919;45.816;3.104;2023-05-03T07:19:50;98168.31;;;10.24;87.45
61039;BME280;46919;45.816;3.104;2023-05-03T07:22:17;98168.72;;;10.35;86.78
61039;BME280;46919;45.816;3.104;2023-05-03T07:24:44;98167.41;;;10.44;86.39
61039;BME280;46919;45.816;3.104;2023-05-03T07:27:10;98165.06;;;10.54;86.01
61039;BME280;46919;45.816;3.104;2023-05-03T07:29:35;98155.91;;;10.55;86.57
61039;BME280;46919;45.816;3.104;2023-05-03T07:32:00;98159.81;;;10.59;86.90
61039;BME280;46919;45.816;3.104;2023-05-03T07:34:26;98149.78;;;10.66;87.13
61039;BME280;46919;45.816;3.104;2023-05-03T07:36:51;98156.81;;;10.74;87.10
61039;BME280;46919;45.816;3.104;2023-05-03T07:39:17;98148.50;;;10.76;86.49
61039;BME280;46919;45.816;3.104;2023-05-03T07:41:43;98151.06;;;10.89;86.61
61039;BME280;46919;45.816;3.104;2023-05-03T07:44:08;98153.06;;;11.00;86.00
61039;BME280;46919;45.816;3.104;2023-05-03T07:46:34;98153.84;;;11.08;85.36
61039;BME280;46919;45.816;3.104;2023-05-03T07:49:04;98151.00;;;11.21;84.31
61039;BME280;46919;45.816;3.104;2023-05-03T07:51:34;98144.72;;;11.27;83.66
61039;BME280;46919;45.816;3.104;2023-05-03T07:53:59;98132.91;;;11.40;82.87
61039;BME280;46919;45.816;3.104;2023-05-03T07:56:26;98130.38;;;11.64;82.34
61039;BME280;46919;45.816;3.104;2023-05-03T07:58:52;98128.81;;;11.74;81.48
61039;BME280;46919;45.816;3.104;2023-05-03T08:01:19;98141.44;;;11.81;80.98
61039;BME280;46919;45.816;3.104;2023-05-03T08:03:44;98136.94;;;11.74;80.57
61039;BME280;46919;45.816;3.104;2023-05-03T08:06:10;98138.41;;;11.89;80.37
61039;BME280;46919;45.816;3.104;2023-05-03T08:08:35;98137.81;;;12.05;79.55
61039;BME280;46919;45.816;3.104;2023-05-03T08:11:02;98136.00;;;12.18;78.96
61039;BME280;46919;45.816;3.104;2023-05-03T08:13:28;98139.13;;;12.33;77.38
61039;BME280;46919;45.816;3.104;2023-05-03T08:15:53;98134.34;;;12.47;77.43
61039;BME280;46919;45.816;3.104;2023-05-03T08:18:18;98135.97;;;12.48;77.12
61039;BME280;46919;45.816;3.104;2023-05-03T08:20:44;98134.69;;;12.50;77.08
61039;BME280;46919;45.816;3.104;2023-05-03T08:23:11;98133.34;;;12.72;77.50
61039;BME280;46919;45.816;3.104;2023-05-03T08:25:36;98131.00;;;12.75;76.59
61039;BME280;46919;45.816;3.104;2023-05-03T08:28:02;98127.09;;;12.83;75.88
61039;BME280;46919;45.816;3.104;2023-05-03T08:30:28;98127.94;;;12.95;75.32
61039;BME280;46919;45.816;3.104;2023-05-03T08:32:54;98127.97;;;13.07;75.27
61039;BME280;46919;45.816;3.104;2023-05-03T08:35:19;98132.00;;;13.16;73.85
61039;BME280;46919;45.816;3.104;2023-05-03T08:37:45;98129.88;;;13.18;73.80
61039;BME280;46919;45.816;3.104;2023-05-03T08:40:11;98119.50;;;13.39;73.44
61039;BME280;46919;45.816;3.104;2023-05-03T08:42:44;98113.59;;;13.42;72.49
61039;BME280;46919;45.816;3.104;2023-05-03T08:45:12;98118.44;;;13.52;72.82
61039;BME280;46919;45.816;3.104;2023-05-03T08:47:39;98119.81;;;13.54;71.71
61039;BME280;46919;45.816;3.104;2023-05-03T08:50:07;98119.25;;;13.52;71.38
61039;BME280;46919;45.816;3.104;2023-05-03T08:52:33;98115.56;;;13.70;70.90
61039;BME280;46919;45.816;3.104;2023-05-03T08:54:59;98111.84;;;13.88;70.23
61039;BME280;46919;45.816;3.104;2023-05-03T08:57:26;98114.88;;;14.04;69.95
61039;BME280;46919;45.816;3.104;2023-05-03T08:59:52;98109.16;;;14.17;69.64
61039;BME280;46919;45.816;3.104;2023-05-03T09:02:22;98119.22;;;14.34;70.25
61039;BME280;46919;45.816;3.104;2023-05-03T09:04:48;98116.44;;;14.28;69.55
61039;BME280;46919;45.816;3.104;2023-05-03T09:07:13;98122.81;;;14.22;70.00
61039;BME280;46919;45.816;3.104;2023-05-03T09:09:41;98120.72;;;14.24;70.16
61039;BME280;46919;45.816;3.104;2023-05-03T09:12:10;98117.13;;;14.53;69.80
61039;BME280;46919;45.816;3.104;2023-05-03T09:14:45;98115.16;;;14.77;70.24
61039;BME280;46919;45.816;3.104;2023-05-03T09:17:18;98113.81;;;14.96;69.84
61039;BME280;46919;45.816;3.104;2023-05-03T09:19:57;98112.59;;;15.04;69.37
61039;BME280;46919;45.816;3.104;2023-05-03T09:22:26;98119.50;;;15.12;68.86
61039;BME280;46919;45.816;3.104;2023-05-03T09:24:55;98111.09;;;15.13;68.29
61039;BME280;46919;45.816;3.104;2023-05-03T09:27:22;98103.75;;;15.14;68.25
61039;BME280;46919;45.816;3.104;2023-05-03T09:29:49;98107.41;;;15.02;67.05
61039;BME280;46919;45.816;3.104;2023-05-03T09:32:15;98110.34;;;15.18;66.75
61039;BME280;46919;45.816;3.104;2023-05-03T09:34:42;98107.69;;;15.40;65.20
61039;BME280;46919;45.816;3.104;2023-05-03T09:37:08;98101.16;;;15.41;64.54
61039;BME280;46919;45.816;3.104;2023-05-03T09:39:33;98096.44;;;15.36;63.76
61039;BME280;46919;45.816;3.104;2023-05-03T09:42:17;98099.56;;;15.45;63.86
61039;BME280;46919;45.816;3.104;2023-05-03T09:44:44;98094.06;;;15.62;63.80
61039;BME280;46919;45.816;3.104;2023-05-03T09:47:13;98092.03;;;15.52;63.36
61039;BME280;46919;45.816;3.104;2023-05-03T09:49:39;98089.56;;;15.51;63.06
61039;BME280;46919;45.816;3.104;2023-05-03T09:52:05;98095.66;;;15.58;63.11
61039;BME280;46919;45.816;3.104;2023-05-03T09:54:32;98093.13;;;15.73;63.32
61039;BME280;46919;45.816;3.104;2023-05-03T09:56:59;98087.56;;;16.07;62.77
61039;BME280;46919;45.816;3.104;2023-05-03T09:59:26;98092.22;;;16.34;62.29
61039;BME280;46919;45.816;3.104;2023-05-03T10:01:55;98091.28;;;16.51;61.35
61039;BME280;46919;45.816;3.104;2023-05-03T10:04:24;98096.84;;;16.61;60.88
61039;BME280;46919;45.816;3.104;2023-05-03T10:06:53;98088.50;;;16.45;59.10
61039;BME280;46919;45.816;3.104;2023-05-03T10:09:25;98080.31;;;16.45;59.12
61039;BME280;46919;45.816;3.104;2023-05-03T10:11:53;98088.41;;;16.62;58.96
61039;BME280;46919;45.816;3.104;2023-05-03T10:14:22;98086.03;;;16.44;57.68
61039;BME280;46919;45.816;3.104;2023-05-03T10:16:51;98079.75;;;16.43;57.51
61039;BME280;46919;45.816;3.104;2023-05-03T10:19:40;98082.47;;;16.71;57.06
61039;BME280;46919;45.816;3.104;2023-05-03T10:22:10;98075.47;;;16.85;55.95
61039;BME280;46919;45.816;3.104;2023-05-03T10:24:37;98072.06;;;17.00;54.63
61039;BME280;46919;45.816;3.104;2023-05-03T10:27:22;98073.38;;;17.35;55.28
61039;BME280;46919;45.816;3.104;2023-05-03T10:29:49;98066.41;;;17.65;53.65
61039;BME280;46919;45.816;3.104;2023-05-03T10:32:35;98060.44;;;17.73;53.25
61039;BME280;46919;45.816;3.104;2023-05-03T10:35:13;98065.75;;;17.90;52.79
61039;BME280;46919;45.816;3.104;2023-05-03T10:37:42;98066.00;;;17.88;51.72
61039;BME280;46919;45.816;3.104;2023-05-03T10:40:11;98055.25;;;17.71;51.25
61039;BME280;46919;45.816;3.104;2023-05-03T10:42:38;98063.81;;;17.90;52.01
61039;BME280;46919;45.816;3.104;2023-05-03T10:45:06;98059.50;;;18.05;51.57
61039;BME280;46919;45.816;3.104;2023-05-03T10:47:33;98056.94;;;17.83;51.08
61039;BME280;46919;45.816;3.104;2023-05-03T10:55:20;98044.53;;;18.43;50.36
61039;BME280;46919;45.816;3.104;2023-05-03T10:57:46;98046.47;;;18.69;50.17
61039;BME280;46919;45.816;3.104;2023-05-03T11:05:33;98027.53;;;18.77;51.10
61039;BME280;46919;45.816;3.104;2023-05-03T11:08:13;98033.88;;;18.78;50.22
61039;BME280;46919;45.816;3.104;2023-05-03T11:10:39;98037.69;;;18.87;50.17
61039;BME280;46919;45.816;3.104;2023-05-03T11:13:05;98031.69;;;18.95;50.85
61039;BME280;46919;45.816;3.104;2023-05-03T11:15:31;98022.03;;;19.24;49.32
61039;BME280;46919;45.816;3.104;2023-05-03T11:17:57;98021.19;;;19.33;49.70
61039;BME280;46919;45.816;3.104;2023-05-03T11:20:22;98012.94;;;19.39;49.63
61039;BME280;46919;45.816;3.104;2023-05-03T11:22:48;98012.91;;;19.54;49.04
61039;BME280;46919;45.816;3.104;2023-05-03T11:25:14;98003.53;;;19.60;48.89
61039;BME280;46919;45.816;3.104;2023-05-03T11:27:42;98004.91;;;19.63;48.55
61039;BME280;46919;45.816;3.104;2023-05-03T11:30:08;97995.03;;;19.67;47.86
61039;BME280;46919;45.816;3.104;2023-05-03T11:32:35;98000.44;;;19.87;48.08
61039;BME280;46919;45.816;3.104;2023-05-03T11:35:01;97992.72;;;19.89;48.29
61039;BME280;46919;45.816;3.104;2023-05-03T11:37:30;97987.69;;;20.07;47.66
61039;BME280;46919;45.816;3.104;2023-05-03T11:39:56;97984.56;;;20.19;47.41
61039;BME280;46919;45.816;3.104;2023-05-03T11:42:22;97976.56;;;20.27;47.04
61039;BME280;46919;45.816;3.104;2023-05-03T11:44:53;97976.16;;;20.44;47.58
61039;BME280;46919;45.816;3.104;2023-05-03T11:47:19;97964.63;;;20.48;46.66
61039;BME280;46919;45.816;3.104;2023-05-03T11:49:52;97965.53;;;20.33;45.70
61039;BME280;46919;45.816;3.104;2023-05-03T11:52:22;97956.28;;;20.58;45.55
61039;BME280;46919;45.816;3.104;2023-05-03T11:54:48;97959.94;;;20.83;46.54
61039;BME280;46919;45.816;3.104;2023-05-03T11:57:14;97947.94;;;20.97;46.03
61039;BME280;46919;45.816;3.104;2023-05-03T11:59:40;97952.50;;;21.07;45.78
61039;BME280;46919;45.816;3.104;2023-05-03T12:02:08;97942.69;;;21.01;45.31
61039;BME280;46919;45.816;3.104;2023-05-03T12:04:36;97935.38;;;20.91;45.28
61039;BME280;46919;45.816;3.104;2023-05-03T12:07:05;97940.06;;;21.15;45.04
61039;BME280;46919;45.816;3.104;2023-05-03T12:09:32;97938.84;;;21.45;44.52
61039;BME280;46919;45.816;3.104;2023-05-03T12:11:58;97935.34;;;21.64;43.74
61039;BME280;46919;45.816;3.104;2023-05-03T12:14:24;97925.53;;;21.58;43.95
61039;BME280;46919;45.816;3.104;2023-05-03T12:16:51;97926.22;;;21.68;44.48
61039;BME280;46919;45.816;3.104;2023-05-03T12:19:29;97923.47;;;21.87;43.94
61039;BME280;46919;45.816;3.104;2023-05-03T12:21:55;97922.91;;;22.04;44.05
61039;BME280;46919;45.816;3.104;2023-05-03T12:24:21;97923.66;;;22.10;43.88
61039;BME280;46919;45.816;3.104;2023-05-03T12:26:51;97917.84;;;22.31;42.69
61039;BME280;46919;45.816;3.104;2023-05-03T12:29:16;97917.25;;;22.34;42.69
61039;BME280;46919;45.816;3.104;2023-05-03T12:31:43;97906.81;;;22.64;42.46
61039;BME280;46919;45.816;3.104;2023-05-03T12:34:09;97911.53;;;22.77;42.99
61039;BME280;46919;45.816;3.104;2023-05-03T12:36:36;97915.22;;;22.86;40.91
61039;BME280;46919;45.816;3.104;2023-05-03T12:39:01;97910.63;;;22.95;41.63
61039;BME280;46919;45.816;3.104;2023-05-03T12:41:27;97903.22;;;23.10;40.29
61039;BME280;46919;45.816;3.104;2023-05-03T12:43:56;97900.84;;;23.17;39.46
61039;BME280;46919;45.816;3.104;2023-05-03T12:46:22;97894.63;;;23.25;40.77
61039;BME280;46919;45.816;3.104;2023-05-03T12:48:49;97892.06;;;23.29;40.54
61039;BME280;46919;45.816;3.104;2023-05-03T12:51:14;97896.59;;;23.11;40.85
61039;BME280;46919;45.816;3.104;2023-05-03T12:53:40;97892.88;;;23.02;39.60
61039;BME280;46919;45.816;3.104;2023-05-03T12:56:05;97899.53;;;23.14;39.47
61039;BME280;46919;45.816;3.104;2023-05-03T12:58:31;97894.38;;;23.49;40.12
61039;BME280;46919;45.816;3.104;2023-05-03T13:00:58;97886.00;;;23.91;40.60
61039;BME280;46919;45.816;3.104;2023-05-03T13:03:24;97883.97;;;23.83;39.72
61039;BME280;46919;45.816;3.104;2023-05-03T13:05:49;97884.81;;;23.83;39.48
61039;BME280;46919;45.816;3.104;2023-05-03T13:08:15;97882.81;;;23.98;39.68
61039;BME280;46919;45.816;3.104;2023-05-03T13:10:41;97878.47;;;24.51;39.94
61039;BME280;46919;45.816;3.104;2023-05-03T13:13:06;97877.09;;;24.17;38.89
61039;BME280;46919;45.816;3.104;2023-05-03T13:15:34;97863.81;;;24.50;38.53
61039;BME280;46919;45.816;3.104;2023-05-03T13:17:59;97862.66;;;24.20;38.19
61039;BME280;46919;45.816;3.104;2023-05-03T13:20:26;97859.25;;;24.46;39.13